createdAt,value
2018-01-13T00:01:04.166Z,31.73
2018-01-13T00:04:10.466Z,36.03
2018-01-13T00:07:16.439Z,29.33
2018-01-13T00:10:22.755Z,38.53
2018-01-13T00:13:27.659Z,36.50
2018-01-13T00:16:33.206Z,34.80
2018-01-13T00:19:38.514Z,36.93
2018-01-13T00:22:49.976Z,42.80
2018-01-13T00:25:56.745Z,42.70
2018-01-13T00:29:02.930Z,39.23
2018-01-13T00:32:09.349Z,37.70
2018-01-13T00:35:14.517Z,37.90
2018-01-13T00:38:21.161Z,34.20
2018-01-13T00:41:26.055Z,33.53
2018-01-13T00:44:30.844Z,37.00
2018-01-13T00:47:35.918Z,41.17
2018-01-13T00:50:42.072Z,32.60
2018-01-13T00:53:46.963Z,38.70
2018-01-13T00:56:52.927Z,33.90
2018-01-13T00:59:57.546Z,36.53
2018-01-13T01:03:03.403Z,37.20
2018-01-13T01:06:08.641Z,35.80
2018-01-13T01:09:14.090Z,30.10
2018-01-13T01:12:19.991Z,30.03
2018-01-13T01:15:25.375Z,30.87
2018-01-13T01:18:30.777Z,33.87
2018-01-13T01:21:37.103Z,33.57
2018-01-13T01:24:42.049Z,34.30
2018-01-13T01:27:48.019Z,32.90
2018-01-13T01:30:54.266Z,30.30
2018-01-13T01:33:59.418Z,35.30
2018-01-13T01:37:05.083Z,38.63
2018-01-13T01:40:10.739Z,33.00
2018-01-13T01:43:16.716Z,27.47
2018-01-13T01:46:22.042Z,41.40
2018-01-13T01:49:28.367Z,36.60
2018-01-13T01:52:33.549Z,34.67
2018-01-13T01:55:38.646Z,40.63
2018-01-13T01:58:44.066Z,36.33
2018-01-13T02:01:49.724Z,33.10
2018-01-13T02:04:56.250Z,35.53
2018-01-13T02:08:01.730Z,29.63
2018-01-13T02:11:08.310Z,34.33
2018-01-13T02:14:14.642Z,35.80
2018-01-13T02:17:19.851Z,40.63
2018-01-13T02:20:25.694Z,32.13
2018-01-13T02:23:30.590Z,41.23
2018-01-13T02:26:35.610Z,36.60
2018-01-13T02:29:40.656Z,41.87
2018-01-13T02:32:46.455Z,41.03
2018-01-13T02:35:52.462Z,34.70
2018-01-13T02:38:58.755Z,38.77
2018-01-13T02:42:05.110Z,37.40
2018-01-13T02:45:10.642Z,39.50
2018-01-13T02:48:16.707Z,36.43
2018-01-13T02:51:21.458Z,35.43
2018-01-13T02:54:26.266Z,38.50
2018-01-13T02:57:32.578Z,35.27
2018-01-13T03:00:37.704Z,35.83
2018-01-13T03:03:42.422Z,35.93
2018-01-13T03:06:48.273Z,34.43
2018-01-13T03:09:54.016Z,38.30
2018-01-13T03:12:59.294Z,36.70
2018-01-13T03:16:05.031Z,36.50
2018-01-13T03:19:10.688Z,40.30
2018-01-13T03:22:16.350Z,38.43
2018-01-13T03:25:21.942Z,40.77
2018-01-13T03:28:27.675Z,32.23
2018-01-13T03:31:33.313Z,32.07
2018-01-13T03:34:38.978Z,40.10
2018-01-13T03:37:43.958Z,32.20
2018-01-13T03:40:49.626Z,38.13
2018-01-13T03:43:55.181Z,39.13
2018-01-13T03:47:00.763Z,30.23
2018-01-13T03:50:05.838Z,35.47
2018-01-13T03:53:11.530Z,34.40
2018-01-13T03:56:17.672Z,36.23
2018-01-13T03:59:22.851Z,33.00
2018-01-13T04:02:27.595Z,30.17
2018-01-13T04:05:33.971Z,36.60
2018-01-13T04:08:39.419Z,31.37
2018-01-13T04:11:46.806Z,30.40
2018-01-13T04:14:51.918Z,31.00
2018-01-13T04:17:58.044Z,27.03
2018-01-13T04:21:03.782Z,29.83
2018-01-13T04:24:09.050Z,27.50
2018-01-13T04:27:14.307Z,24.33
2018-01-13T04:30:19.290Z,31.43
2018-01-13T04:33:24.189Z,28.20
2018-01-13T04:36:29.354Z,29.60
2018-01-13T04:39:35.117Z,26.97
2018-01-13T04:42:42.727Z,23.83
2018-01-13T04:45:48.217Z,25.70
2018-01-13T04:48:53.101Z,29.13
2018-01-13T04:51:58.674Z,29.83
2018-01-13T04:55:04.298Z,28.30
2018-01-13T04:58:09.879Z,23.33
2018-01-13T05:01:16.178Z,29.90
2018-01-13T05:04:21.290Z,27.97
2018-01-13T05:07:27.412Z,39.57
2018-01-13T05:10:32.955Z,27.63
2018-01-13T05:13:37.983Z,27.50
2018-01-13T05:16:43.550Z,31.50
2018-01-13T05:19:48.810Z,33.90
2018-01-13T05:22:53.790Z,34.87
2018-01-13T05:25:58.651Z,39.57
2018-01-13T05:29:04.090Z,27.70
2018-01-13T05:32:09.808Z,29.30
2018-01-13T05:35:15.543Z,27.83
2018-01-13T05:38:20.860Z,27.87
2018-01-13T05:41:26.250Z,31.40
2018-01-13T05:44:31.436Z,33.83
2018-01-13T05:47:37.154Z,30.67
2018-01-13T05:50:43.111Z,33.93
2018-01-13T05:53:48.002Z,31.50
2018-01-13T05:56:53.671Z,35.13
2018-01-13T06:00:00.383Z,36.00
2018-01-13T06:03:05.778Z,40.93
2018-01-13T06:06:11.910Z,36.10
2018-01-13T06:09:17.923Z,35.17
2018-01-13T06:12:22.999Z,39.80
2018-01-13T06:15:28.023Z,34.67
2018-01-13T06:18:33.937Z,35.43
2018-01-13T06:21:39.101Z,37.30
2018-01-13T06:24:44.891Z,39.10
2018-01-13T06:27:50.803Z,33.83
2018-01-13T06:30:55.263Z,39.43
2018-01-13T06:34:00.338Z,37.43
2018-01-13T06:37:05.720Z,44.80
2018-01-13T06:40:10.758Z,39.70
2018-01-13T06:43:16.655Z,46.40
2018-01-13T06:46:21.727Z,33.70
2018-01-13T06:49:27.218Z,37.33
2018-01-13T06:52:32.741Z,37.27
2018-01-13T06:55:38.876Z,37.67
2018-01-13T06:58:44.845Z,34.13
2018-01-13T07:01:50.326Z,37.37
2018-01-13T07:04:55.383Z,34.93
2018-01-13T07:08:00.990Z,38.60
2018-01-13T07:11:06.178Z,36.10
2018-01-13T07:14:11.027Z,28.97
2018-01-13T07:17:15.854Z,36.37
2018-01-13T07:20:35.399Z,35.57
2018-01-13T07:23:40.582Z,31.83
2018-01-13T07:26:46.011Z,30.43
2018-01-13T07:29:51.145Z,33.53
2018-01-13T07:32:56.444Z,31.70
2018-01-13T07:36:01.151Z,34.00
2018-01-13T07:39:06.283Z,30.40
2018-01-13T07:42:11.370Z,31.80
2018-01-13T07:45:16.794Z,28.80
2018-01-13T07:48:21.971Z,37.33
2018-01-13T07:51:28.244Z,28.73
2018-01-13T07:54:34.614Z,31.53
2018-01-13T07:57:41.575Z,27.83
2018-01-13T08:00:46.456Z,26.47
2018-01-13T08:03:51.188Z,27.00
2018-01-13T08:06:55.926Z,29.07
2018-01-13T08:10:00.718Z,26.33
2018-01-13T08:13:06.807Z,28.97
2018-01-13T08:16:14.691Z,27.03
2018-01-13T08:19:20.291Z,23.23
2018-01-13T08:22:29.028Z,24.77
2018-01-13T08:25:40.658Z,26.17
2018-01-13T08:28:45.499Z,28.20
2018-01-13T08:31:51.018Z,26.13
2018-01-13T08:35:02.518Z,29.93
2018-01-13T08:38:08.536Z,25.27
2018-01-13T08:41:13.369Z,31.10
2018-01-13T08:44:18.846Z,28.20
2018-01-13T08:47:24.886Z,27.73
2018-01-13T08:50:30.350Z,23.83
2018-01-13T08:53:35.324Z,29.70
2018-01-13T08:56:41.539Z,27.03
2018-01-13T08:59:46.673Z,33.27
2018-01-13T09:03:03.278Z,27.57
2018-01-13T09:06:10.730Z,27.70
2018-01-13T09:09:28.677Z,25.93
2018-01-13T09:12:33.917Z,30.80
2018-01-13T09:15:44.026Z,29.67
2018-01-13T09:18:50.047Z,26.90
2018-01-13T09:21:55.137Z,27.27
2018-01-13T09:25:00.907Z,26.23
2018-01-13T09:28:06.219Z,26.67
2018-01-13T09:31:11.112Z,26.63
2018-01-13T09:34:16.366Z,26.00
2018-01-13T09:37:21.679Z,23.87
2018-01-13T09:40:27.074Z,25.90
2018-01-13T09:43:32.225Z,29.67
2018-01-13T09:46:37.382Z,35.33
2018-01-13T09:49:42.120Z,28.60
2018-01-13T09:52:47.515Z,29.53
2018-01-13T09:55:53.843Z,25.23
2018-01-13T09:58:59.340Z,21.70
2018-01-13T10:02:05.032Z,23.40
2018-01-13T10:05:10.173Z,23.80
2018-01-13T10:08:15.315Z,28.93
2018-01-13T10:11:21.067Z,23.97
2018-01-13T10:14:34.600Z,25.27
2018-01-13T10:17:40.347Z,26.43
2018-01-13T10:20:45.007Z,24.00
2018-01-13T10:23:50.654Z,22.47
2018-01-13T10:26:56.872Z,21.40
2018-01-13T10:30:02.302Z,24.30
2018-01-13T10:33:07.828Z,25.77
2018-01-13T10:36:14.039Z,26.33
2018-01-13T10:39:20.228Z,21.70
2018-01-13T10:42:25.435Z,30.70
2018-01-13T10:45:30.135Z,24.73
2018-01-13T10:48:36.468Z,22.93
2018-01-13T10:51:41.656Z,21.93
2018-01-13T10:54:48.030Z,21.60
2018-01-13T10:57:55.177Z,22.17
2018-01-13T11:00:59.910Z,21.27
2018-01-13T11:04:05.489Z,22.50
2018-01-13T11:07:10.902Z,23.50
2018-01-13T11:10:16.144Z,20.63
2018-01-13T11:13:21.718Z,24.57
2018-01-13T11:16:26.922Z,24.73
2018-01-13T11:19:31.770Z,21.27
2018-01-13T11:22:37.378Z,22.83
2018-01-13T11:25:42.526Z,23.80
2018-01-13T11:28:51.905Z,22.00
2018-01-13T11:31:58.816Z,24.73
2018-01-13T11:35:03.907Z,21.40
2018-01-13T11:38:08.741Z,30.23
2018-01-13T11:41:14.118Z,21.10
2018-01-13T11:44:19.603Z,25.30
2018-01-13T11:47:26.095Z,20.40
2018-01-13T11:50:31.202Z,24.87
2018-01-13T11:53:41.079Z,22.83
2018-01-13T11:56:46.127Z,25.43
2018-01-13T11:59:51.919Z,21.23
2018-01-13T12:02:57.606Z,22.70
2018-01-13T12:06:03.014Z,26.30
2018-01-13T12:09:08.559Z,25.20
2018-01-13T12:12:13.911Z,24.23
2018-01-13T12:15:19.482Z,26.27
2018-01-13T12:18:24.866Z,23.90
2018-01-13T12:21:30.128Z,22.60
2018-01-13T12:24:35.713Z,20.23
2018-01-13T12:27:41.646Z,36.03
2018-01-13T12:30:46.985Z,32.20
2018-01-13T12:33:52.142Z,29.13
2018-01-13T12:36:57.243Z,33.07
2018-01-13T12:40:02.343Z,23.53
2018-01-13T12:43:07.555Z,25.57
2018-01-13T12:46:12.859Z,26.53
2018-01-13T12:49:17.949Z,24.17
2018-01-13T12:52:24.219Z,24.30
2018-01-13T12:55:30.398Z,23.80
2018-01-13T12:58:36.094Z,21.97
2018-01-13T13:01:41.350Z,20.67
2018-01-13T13:04:47.275Z,19.90
2018-01-13T13:07:52.716Z,24.63
2018-01-13T13:10:58.018Z,28.57
2018-01-13T13:14:03.486Z,24.53
2018-01-13T13:17:08.494Z,30.90
2018-01-13T13:20:13.574Z,25.47
2018-01-13T13:23:18.742Z,28.40
2018-01-13T13:26:25.289Z,25.63
2018-01-13T13:29:29.927Z,28.40
2018-01-13T13:32:35.323Z,25.57
2018-01-13T13:35:40.478Z,34.07
2018-01-13T13:38:46.268Z,26.00
2018-01-13T13:41:52.031Z,24.30
2018-01-13T13:44:57.667Z,25.50
2018-01-13T13:48:02.971Z,27.07
2018-01-13T13:51:08.668Z,24.07
2018-01-13T13:54:13.974Z,27.87
2018-01-13T13:57:20.467Z,29.77
2018-01-13T14:00:25.634Z,25.43
2018-01-13T14:03:30.790Z,26.43
2018-01-13T14:06:36.375Z,31.90
2018-01-13T14:09:41.717Z,22.33
2018-01-13T14:12:47.259Z,26.30
2018-01-13T14:15:52.540Z,24.70
2018-01-13T14:18:57.638Z,29.47
2018-01-13T14:22:03.076Z,25.87
2018-01-13T14:25:08.419Z,27.17
2018-01-13T14:28:13.775Z,29.33
2018-01-13T14:31:19.903Z,32.00
2018-01-13T14:34:25.900Z,25.93
2018-01-13T14:37:31.190Z,27.03
2018-01-13T14:40:36.878Z,28.30
2018-01-13T14:43:42.052Z,28.80
2018-01-13T14:46:48.272Z,27.03
2018-01-13T14:49:53.299Z,26.87
2018-01-13T14:52:59.026Z,27.80
2018-01-13T14:56:04.806Z,28.20
2018-01-13T14:59:10.682Z,25.83
2018-01-13T15:02:16.323Z,23.43
2018-01-13T15:05:20.976Z,25.57
2018-01-13T15:08:26.707Z,26.17
2018-01-13T15:11:32.128Z,27.43
2018-01-13T15:14:37.695Z,27.20
2018-01-13T15:17:43.290Z,28.47
2018-01-13T15:20:48.716Z,23.83
2018-01-13T15:23:54.117Z,26.87
2018-01-13T15:26:59.618Z,26.30
2018-01-13T15:30:04.813Z,26.50
2018-01-13T15:33:09.690Z,24.00
2018-01-13T15:36:15.986Z,26.63
2018-01-13T15:39:21.316Z,29.57
2018-01-13T15:42:26.457Z,23.00
2018-01-13T15:45:31.351Z,25.00
2018-01-13T15:48:36.690Z,26.50
2018-01-13T15:51:42.333Z,25.07
2018-01-13T15:54:48.680Z,23.60
2018-01-13T15:57:54.426Z,35.27
2018-01-13T16:01:00.494Z,67.53
2018-01-13T16:04:07.165Z,30.13
2018-01-13T16:07:12.409Z,33.87
2018-01-13T16:10:17.470Z,25.90
2018-01-13T16:13:22.520Z,26.77
2018-01-13T16:16:27.894Z,28.10
2018-01-13T16:19:33.264Z,32.57
2018-01-13T16:22:38.779Z,28.10
2018-01-13T16:25:43.664Z,34.57
2018-01-13T16:28:49.133Z,31.87
2018-01-13T16:31:55.543Z,28.10
2018-01-13T16:34:59.912Z,29.00
2018-01-13T16:38:05.284Z,31.40
2018-01-13T16:41:09.962Z,26.67
2018-01-13T16:44:16.255Z,30.10
2018-01-13T16:47:21.532Z,27.80
2018-01-13T16:50:26.955Z,30.97
2018-01-13T16:53:32.481Z,24.70
2018-01-13T16:56:50.498Z,28.53
2018-01-13T16:59:58.767Z,29.90
2018-01-13T17:03:03.724Z,29.17
2018-01-13T17:06:18.443Z,26.77
2018-01-13T17:09:24.369Z,30.17
2018-01-13T17:12:29.402Z,30.30
2018-01-13T17:15:35.659Z,28.97
2018-01-13T17:18:40.919Z,33.20
2018-01-13T17:21:46.914Z,28.40
2018-01-13T17:24:52.051Z,32.93
2018-01-13T17:27:59.023Z,32.50
2018-01-13T17:31:04.343Z,28.23
2018-01-13T17:34:09.335Z,39.73
2018-01-13T17:37:14.412Z,27.57
2018-01-13T17:40:19.729Z,28.50
2018-01-13T17:43:26.413Z,30.80
2018-01-13T17:46:34.826Z,32.70
2018-01-13T17:49:41.191Z,27.53
2018-01-13T17:52:46.795Z,28.73
2018-01-13T17:55:51.654Z,28.47
2018-01-13T17:58:58.423Z,30.67
2018-01-13T18:02:04.879Z,26.90
2018-01-13T18:05:11.184Z,27.03
2018-01-13T18:08:16.041Z,26.67
2018-01-13T18:11:20.955Z,30.13
2018-01-13T18:14:32.787Z,43.00
2018-01-13T18:17:41.698Z,52.77
2018-01-13T18:20:55.653Z,33.33
2018-01-13T18:24:01.392Z,32.50
2018-01-13T18:27:09.337Z,31.47
2018-01-13T18:30:14.153Z,27.70
2018-01-13T18:33:20.370Z,31.90
2018-01-13T18:36:32.058Z,27.70
2018-01-13T18:39:43.862Z,28.53
2018-01-13T18:42:49.419Z,28.33
2018-01-13T18:45:57.929Z,32.63
2018-01-13T18:49:12.850Z,33.00
2018-01-13T18:52:18.586Z,31.40
2018-01-13T18:55:23.701Z,29.10
2018-01-13T18:58:36.178Z,29.00
2018-01-13T19:01:42.943Z,29.70
2018-01-13T19:04:48.187Z,31.87
2018-01-13T19:07:53.253Z,32.40
2018-01-13T19:10:58.902Z,28.60
2018-01-13T19:14:10.806Z,26.03
2018-01-13T19:17:16.875Z,24.60
2018-01-13T19:20:24.234Z,34.77
2018-01-13T19:23:29.300Z,27.10
2018-01-13T19:26:34.752Z,28.80
2018-01-13T19:29:40.039Z,32.80
2018-01-13T19:32:46.832Z,30.97
2018-01-13T19:36:04.232Z,24.77
2018-01-13T19:39:09.799Z,25.80
2018-01-13T19:42:14.507Z,25.27
2018-01-13T19:45:19.493Z,24.07
2018-01-13T19:48:26.767Z,28.07
2018-01-13T19:51:33.047Z,24.83
2018-01-13T19:54:52.816Z,25.93
2018-01-13T19:58:11.053Z,26.50
2018-01-13T20:01:16.350Z,25.93
2018-01-13T20:04:33.108Z,25.73
2018-01-13T20:07:51.930Z,27.30
2018-01-13T20:10:59.357Z,31.63
2018-01-13T20:17:34.491Z,26.60
2018-01-13T20:20:40.819Z,29.40
2018-01-13T20:23:47.052Z,27.67
2018-01-13T20:26:52.713Z,24.97
2018-01-13T20:29:58.055Z,22.97
2018-01-13T20:33:03.489Z,26.03
2018-01-13T20:36:08.649Z,27.90
2018-01-13T20:39:13.737Z,29.17
2018-01-13T20:42:18.741Z,27.60
2018-01-13T20:45:23.987Z,28.13
2018-01-13T20:48:29.566Z,24.87
2018-01-13T20:51:35.319Z,24.77
2018-01-13T20:54:41.483Z,27.47
2018-01-13T20:57:46.947Z,27.13
2018-01-13T21:00:51.898Z,25.90
2018-01-13T21:03:56.899Z,28.50
2018-01-13T21:07:02.026Z,33.70
2018-01-13T21:10:07.574Z,31.43
2018-01-13T21:13:12.691Z,30.00
2018-01-13T21:16:19.123Z,26.27
2018-01-13T21:19:25.782Z,24.10
2018-01-13T21:22:31.459Z,27.33
2018-01-13T21:25:38.266Z,30.40
2018-01-13T21:28:43.799Z,28.40
2018-01-13T21:31:49.257Z,28.37
2018-01-13T21:34:58.059Z,28.47
2018-01-13T21:38:03.576Z,24.27
2018-01-13T21:41:09.041Z,27.43
2018-01-13T21:44:14.353Z,27.07
2018-01-13T21:47:19.334Z,31.17
2018-01-13T21:50:24.461Z,27.70
2018-01-13T21:53:29.825Z,28.00
2018-01-13T21:56:34.957Z,24.93
2018-01-13T21:59:40.645Z,28.97
2018-01-13T22:02:46.402Z,32.23
2018-01-13T22:05:51.550Z,26.37
2018-01-13T22:08:57.789Z,31.20
2018-01-13T22:12:03.336Z,30.33
2018-01-13T22:15:08.538Z,25.20
2018-01-13T22:18:14.010Z,26.70
2018-01-13T22:21:19.581Z,29.90
2018-01-13T22:24:24.753Z,31.10
2018-01-13T22:27:30.354Z,28.57
2018-01-13T22:30:37.537Z,30.77
2018-01-13T22:33:43.317Z,28.50
2018-01-13T22:36:48.310Z,30.20
2018-01-13T22:39:53.205Z,25.87
2018-01-13T22:42:59.465Z,29.20
2018-01-13T22:46:04.829Z,29.00
2018-01-13T22:49:09.977Z,29.40
2018-01-13T22:52:14.681Z,28.37
2018-01-13T22:55:20.325Z,31.50
2018-01-13T22:58:25.953Z,27.17
2018-01-13T23:01:30.873Z,27.40
2018-01-13T23:04:36.632Z,29.93
2018-01-13T23:07:41.853Z,33.07
2018-01-13T23:10:47.461Z,31.60
2018-01-13T23:13:53.217Z,30.10
2018-01-13T23:16:59.643Z,32.40
2018-01-13T23:20:04.626Z,30.03
2018-01-13T23:23:11.661Z,34.13
2018-01-13T23:26:17.234Z,31.03
2018-01-13T23:29:22.520Z,37.60
2018-01-13T23:32:27.471Z,36.10
2018-01-13T23:35:33.080Z,33.93
2018-01-13T23:38:39.057Z,34.97
2018-01-13T23:41:45.320Z,30.50
2018-01-13T23:44:50.325Z,32.40
2018-01-13T23:47:55.709Z,29.63
2018-01-13T23:51:02.002Z,29.53
2018-01-13T23:54:08.265Z,30.93
2018-01-13T23:57:13.977Z,39.10
